Bata, Equatorial Guinea
Current Conditions -  °F | °C
As of 9:00 PM on Sunday 23 Nov 2014 (Local Time) from FGBT Reporting Station
Broken Clouds Broken Clouds  
Wind Chill: 82°   Ceiling: 1000
Heat Index: 92°   Visibility: 5mi
Dew Point: 79°   Wind: 8mph
Humidity: 89%   Direction: 280°W
Pressure: 29.88"   Gusts: NA
Location:  1.87°N, 9.76°E
Report Text: FGBT 232000Z 28007KT 8000 BKN010 FEW020CB BKN100 28/26 Q1012 NOSIG
Loading
Personal Weather Stations






























Interactive Weather Map New forecast layout! Learn more

10-Day Weather Forecast

Advertisements
Track Severe Weather on mobile